createdAt,value
2023-05-21T00:00:41.064Z,94657.00
2023-05-21T00:01:41.088Z,94656.00
2023-05-21T00:02:41.143Z,94656.00
2023-05-21T00:03:41.283Z,94658.00
2023-05-21T00:04:41.077Z,94658.00
2023-05-21T00:05:41.066Z,94659.00
2023-05-21T00:06:41.071Z,94661.00
2023-05-21T00:07:41.032Z,94661.00
2023-05-21T00:08:41.023Z,94661.00
2023-05-21T00:09:41.085Z,94660.00
2023-05-21T00:10:41.058Z,94660.00
2023-05-21T00:11:41.045Z,94660.00
2023-05-21T00:12:41.070Z,94662.00
2023-05-21T00:13:41.062Z,94663.00
2023-05-21T00:14:41.119Z,94660.00
2023-05-21T00:15:41.152Z,94660.00
2023-05-21T00:16:41.157Z,94659.00
2023-05-21T00:17:41.252Z,94657.00
2023-05-21T00:18:41.249Z,94656.00
2023-05-21T00:19:41.269Z,94657.00
2023-05-21T00:20:41.293Z,94657.00
2023-05-21T00:21:41.263Z,94658.00
2023-05-21T00:22:41.258Z,94659.00
2023-05-21T00:23:41.305Z,94661.00
2023-05-21T00:24:41.335Z,94661.00
2023-05-21T00:25:41.390Z,94659.00
2023-05-21T00:26:41.422Z,94658.00
2023-05-21T00:27:41.444Z,94657.00
2023-05-21T00:28:41.493Z,94659.00
2023-05-21T00:29:44.172Z,94658.00
2023-05-21T00:30:41.488Z,94659.00
2023-05-21T00:31:41.587Z,94658.00
2023-05-21T00:32:41.553Z,94658.00
2023-05-21T00:33:41.567Z,94663.00
2023-05-21T00:34:41.494Z,94665.00
2023-05-21T00:35:41.494Z,94663.00
2023-05-21T00:36:41.469Z,94664.00
2023-05-21T00:37:41.501Z,94660.00
2023-05-21T00:38:41.478Z,94660.00
2023-05-21T00:39:41.458Z,94659.00
2023-05-21T00:40:41.457Z,94660.00
2023-05-21T00:41:41.440Z,94661.00
2023-05-21T00:42:41.437Z,94660.00
2023-05-21T00:43:41.500Z,94658.00
2023-05-21T00:44:41.429Z,94658.00
2023-05-21T00:45:41.411Z,94657.00
2023-05-21T00:46:41.403Z,94657.00
2023-05-21T00:47:41.465Z,94657.00
2023-05-21T00:48:41.437Z,94659.00
2023-05-21T00:49:41.410Z,94660.00
2023-05-21T00:50:41.432Z,94659.00
2023-05-21T00:51:41.397Z,94661.00
2023-05-21T00:52:41.382Z,94660.00
2023-05-21T00:53:41.363Z,94664.00
2023-05-21T00:54:41.372Z,94661.00
2023-05-21T00:55:41.353Z,94660.00
2023-05-21T00:56:41.350Z,94662.00
2023-05-21T00:57:41.334Z,94661.00
2023-05-21T00:58:41.338Z,94660.00
2023-05-21T00:59:41.330Z,94661.00
2023-05-21T01:00:41.303Z,94666.00
2023-05-21T01:01:41.310Z,94668.00
2023-05-21T01:02:41.421Z,94667.00
2023-05-21T01:03:41.421Z,94666.00
2023-05-21T01:04:41.297Z,94664.00
2023-05-21T01:05:41.304Z,94659.00
2023-05-21T01:06:41.248Z,94660.00
2023-05-21T01:07:41.288Z,94660.00
2023-05-21T01:08:41.261Z,94659.00
2023-05-21T01:09:41.229Z,94660.00
2023-05-21T01:10:41.268Z,94659.00
2023-05-21T01:11:41.271Z,94656.00
2023-05-21T01:12:41.228Z,94654.00
2023-05-21T01:13:41.304Z,94653.00
2023-05-21T01:14:41.197Z,94655.00
2023-05-21T01:15:41.236Z,94655.00
2023-05-21T01:16:41.259Z,94657.00
2023-05-21T01:17:41.286Z,94658.00
2023-05-21T01:18:41.289Z,94657.00
2023-05-21T01:19:41.217Z,94653.00
2023-05-21T01:20:41.230Z,94649.00
2023-05-21T01:21:41.183Z,94645.00
2023-05-21T01:22:41.155Z,94648.00
2023-05-21T01:23:41.147Z,94650.00
2023-05-21T01:24:41.167Z,94652.00
2023-05-21T01:25:41.173Z,94653.00
2023-05-21T01:26:41.147Z,94651.00
2023-05-21T01:27:41.160Z,94651.00
2023-05-21T01:28:41.939Z,94651.00
2023-05-21T01:29:41.141Z,94651.00
2023-05-21T01:30:41.133Z,94653.00
2023-05-21T01:31:41.101Z,94648.00
2023-05-21T01:32:41.131Z,94646.00
2023-05-21T01:33:41.140Z,94650.00
2023-05-21T01:34:41.100Z,94646.00
2023-05-21T01:35:41.101Z,94646.00
2023-05-21T01:36:41.082Z,94645.00
2023-05-21T01:37:41.052Z,94645.00
2023-05-21T01:38:41.078Z,94644.00
2023-05-21T01:39:41.115Z,94647.00
2023-05-21T01:40:41.130Z,94647.00
2023-05-21T01:41:41.218Z,94648.00
2023-05-21T01:42:42.167Z,94648.00
2023-05-21T01:43:41.215Z,94645.00
2023-05-21T01:44:41.227Z,94647.00
2023-05-21T01:45:41.274Z,94646.00
2023-05-21T01:46:41.378Z,94645.00
2023-05-21T01:47:41.398Z,94646.00
2023-05-21T01:48:41.432Z,94642.00
2023-05-21T01:49:41.426Z,94639.00
2023-05-21T01:50:41.474Z,94640.00
2023-05-21T01:51:41.508Z,94643.00
2023-05-21T01:52:41.530Z,94642.00
2023-05-21T01:53:41.591Z,94640.00
2023-05-21T01:54:41.585Z,94636.00
2023-05-21T01:55:41.607Z,94637.00
2023-05-21T01:56:41.624Z,94639.00
2023-05-21T01:57:41.682Z,94637.00
2023-05-21T01:58:41.697Z,94636.00
2023-05-21T01:59:41.701Z,94640.00
2023-05-21T02:00:41.718Z,94645.00
2023-05-21T02:01:41.785Z,94649.00
2023-05-21T02:02:41.808Z,94648.00
2023-05-21T02:03:41.882Z,94649.00
2023-05-21T02:04:41.790Z,94649.00
2023-05-21T02:05:41.812Z,94645.00
2023-05-21T02:06:41.870Z,94642.00
2023-05-21T02:07:41.957Z,94640.00
2023-05-21T02:08:41.904Z,94639.00
2023-05-21T02:09:41.943Z,94641.00
2023-05-21T02:10:41.992Z,94647.00
2023-05-21T02:11:42.026Z,94649.00
2023-05-21T02:12:42.110Z,94651.00
2023-05-21T02:13:42.113Z,94653.00
2023-05-21T02:14:42.137Z,94650.00
2023-05-21T02:16:52.580Z,94651.00
2023-05-21T02:17:52.677Z,94653.00
2023-05-21T02:18:52.671Z,94653.00
2023-05-21T02:19:52.660Z,94655.00
2023-05-21T02:20:52.641Z,94655.00
2023-05-21T02:21:52.613Z,94655.00
2023-05-21T02:22:52.589Z,94656.00
2023-05-21T02:23:52.582Z,94654.00
2023-05-21T02:24:52.545Z,94654.00
2023-05-21T02:25:52.550Z,94651.00
2023-05-21T02:26:52.624Z,94653.00
2023-05-21T02:27:52.566Z,94653.00
2023-05-21T02:28:52.562Z,94654.00
2023-05-21T02:29:52.558Z,94651.00
2023-05-21T02:30:52.563Z,94649.00
2023-05-21T02:31:52.548Z,94647.00
2023-05-21T02:32:52.558Z,94646.00
2023-05-21T02:33:52.571Z,94645.00
2023-05-21T02:34:52.488Z,94646.00
2023-05-21T02:35:52.517Z,94647.00
2023-05-21T02:36:52.545Z,94643.00
2023-05-21T02:37:52.441Z,94640.00
2023-05-21T02:38:52.441Z,94641.00
2023-05-21T02:39:52.450Z,94639.00
2023-05-21T02:40:52.470Z,94637.00
2023-05-21T02:41:52.470Z,94633.00
2023-05-21T02:42:52.448Z,94634.00
2023-05-21T02:43:52.423Z,94633.00
2023-05-21T02:44:52.409Z,94635.00
2023-05-21T02:45:52.439Z,94633.00
2023-05-21T02:46:52.463Z,94631.00
2023-05-21T02:47:52.440Z,94629.00
2023-05-21T02:48:52.369Z,94628.00
2023-05-21T02:49:52.400Z,94626.00
2023-05-21T02:50:52.407Z,94629.00
2023-05-21T02:51:52.361Z,94627.00
2023-05-21T02:52:52.436Z,94629.00
2023-05-21T02:53:52.352Z,94629.00
2023-05-21T02:54:52.361Z,94630.00
2023-05-21T02:55:52.361Z,94634.00
2023-05-21T02:56:52.392Z,94635.00
2023-05-21T02:57:52.360Z,94635.00
2023-05-21T02:58:52.360Z,94635.00
2023-05-21T02:59:52.306Z,94635.00
2023-05-21T03:00:52.437Z,94637.00
2023-05-21T03:01:52.335Z,94639.00
2023-05-21T03:02:52.368Z,94641.00
2023-05-21T03:03:52.286Z,94640.00
2023-05-21T03:04:52.279Z,94640.00
2023-05-21T03:05:52.284Z,94643.00
2023-05-21T03:06:52.278Z,94645.00
2023-05-21T03:07:52.251Z,94648.00
2023-05-21T03:08:52.251Z,94645.00
2023-05-21T03:09:52.203Z,94641.00
2023-05-21T03:10:52.251Z,94642.00
2023-05-21T03:11:52.245Z,94644.00
2023-05-21T03:12:52.243Z,94649.00
2023-05-21T03:13:52.231Z,94649.00
2023-05-21T03:14:52.235Z,94650.00
2023-05-21T03:15:52.202Z,94647.00
2023-05-21T03:16:52.236Z,94644.00
2023-05-21T03:17:52.303Z,94642.00
2023-05-21T03:18:52.235Z,94644.00
2023-05-21T03:19:52.231Z,94643.00
2023-05-21T03:20:52.290Z,94642.00
2023-05-21T03:21:52.288Z,94648.00
2023-05-21T03:22:52.307Z,94651.00
2023-05-21T03:23:52.327Z,94654.00
2023-05-21T03:24:52.358Z,94654.00
2023-05-21T03:25:52.859Z,94651.00
2023-05-21T03:26:52.430Z,94635.00
2023-05-21T03:27:52.435Z,94624.00
2023-05-21T03:28:52.541Z,94631.00
2023-05-21T03:29:52.557Z,94638.00
2023-05-21T03:30:52.547Z,94644.00
2023-05-21T03:31:52.661Z,94649.00
2023-05-21T03:32:52.773Z,94650.00
2023-05-21T03:33:52.637Z,94652.00
2023-05-21T03:34:52.630Z,94648.00
2023-05-21T03:35:52.685Z,94650.00
2023-05-21T03:36:52.654Z,94651.00
2023-05-21T03:37:52.706Z,94654.00
2023-05-21T03:38:52.716Z,94650.00
2023-05-21T03:39:52.758Z,94649.00
2023-05-21T03:40:52.770Z,94644.00
2023-05-21T03:41:52.787Z,94651.00
2023-05-21T03:42:52.842Z,94653.00
2023-05-21T03:43:52.858Z,94661.00
2023-05-21T03:44:52.894Z,94663.00
2023-05-21T03:45:52.979Z,94662.00
2023-05-21T03:46:53.029Z,94656.00
2023-05-21T03:47:53.033Z,94655.00
2023-05-21T03:48:53.032Z,94660.00
2023-05-21T03:49:53.046Z,94662.00
2023-05-21T03:50:53.097Z,94663.00
2023-05-21T03:51:53.140Z,94657.00
2023-05-21T03:52:53.137Z,94654.00
2023-05-21T03:53:53.205Z,94655.00
2023-05-21T03:54:53.245Z,94658.00
2023-05-21T03:55:53.242Z,94657.00
2023-05-21T03:56:53.287Z,94658.00
2023-05-21T03:57:53.289Z,94656.00
2023-05-21T03:58:53.365Z,94652.00
2023-05-21T03:59:53.366Z,94650.00
2023-05-21T04:00:53.432Z,94651.00
2023-05-21T04:01:53.488Z,94653.00
2023-05-21T04:02:53.573Z,94660.00
2023-05-21T04:03:53.639Z,94660.00
2023-05-21T04:04:53.720Z,94661.00
2023-05-21T04:05:53.592Z,94666.00
2023-05-21T04:06:53.608Z,94669.00
2023-05-21T04:07:53.620Z,94669.00
2023-05-21T04:08:53.663Z,94667.00
2023-05-21T04:09:53.673Z,94663.00
2023-05-21T04:10:53.730Z,94661.00
2023-05-21T04:11:53.800Z,94668.00
2023-05-21T04:12:53.749Z,94674.00
2023-05-21T04:13:53.769Z,94682.00
2023-05-21T04:14:53.777Z,94683.00
2023-05-21T04:15:53.913Z,94680.00
2023-05-21T04:16:53.900Z,94677.00
2023-05-21T04:17:53.920Z,94676.00
2023-05-21T04:18:54.024Z,94679.00
2023-05-21T04:19:53.956Z,94683.00
2023-05-21T04:20:54.023Z,94689.00
2023-05-21T04:21:53.972Z,94696.00
2023-05-21T04:22:53.978Z,94695.00
2023-05-21T04:23:54.042Z,94694.00
2023-05-21T04:24:54.039Z,94692.00
2023-05-21T04:25:54.083Z,94689.00
2023-05-21T04:26:54.153Z,94694.00
2023-05-21T04:27:54.170Z,94691.00
2023-05-21T04:28:54.224Z,94693.00
2023-05-21T04:29:54.215Z,94691.00
2023-05-21T04:30:54.322Z,94688.00
2023-05-21T04:31:54.291Z,94692.00
2023-05-21T04:32:54.292Z,94693.00
2023-05-21T04:33:54.342Z,94694.00
2023-05-21T04:34:54.378Z,94692.00
2023-05-21T04:35:54.438Z,94688.00
2023-05-21T04:36:54.469Z,94686.00
2023-05-21T04:37:54.548Z,94685.00
2023-05-21T04:38:54.553Z,94683.00
2023-05-21T04:39:54.589Z,94683.00
2023-05-21T04:40:54.597Z,94683.00
2023-05-21T04:41:54.647Z,94686.00
2023-05-21T04:42:54.634Z,94686.00
2023-05-21T04:43:54.695Z,94685.00
2023-05-21T04:44:54.714Z,94684.00
2023-05-21T04:45:54.749Z,94681.00
2023-05-21T04:46:54.943Z,94678.00
2023-05-21T04:47:54.895Z,94677.00
2023-05-21T04:48:54.963Z,94678.00
2023-05-21T04:49:54.858Z,94681.00
2023-05-21T04:50:54.895Z,94681.00
2023-05-21T04:51:54.875Z,94682.00
2023-05-21T04:52:54.963Z,94683.00
2023-05-21T04:53:54.951Z,94679.00
2023-05-21T04:54:54.913Z,94678.00
2023-05-21T04:55:54.972Z,94679.00
2023-05-21T04:56:54.980Z,94675.00
2023-05-21T04:57:55.023Z,94675.00
2023-05-21T04:58:55.018Z,94673.00
2023-05-21T04:59:55.032Z,94672.00
2023-05-21T05:00:55.135Z,94675.00
2023-05-21T05:01:55.113Z,94677.00
2023-05-21T05:02:55.257Z,94680.00
2023-05-21T05:03:55.161Z,94679.00
2023-05-21T05:04:55.180Z,94678.00
2023-05-21T05:05:55.240Z,94679.00
2023-05-21T05:06:55.263Z,94676.00
2023-05-21T05:07:55.265Z,94672.00
2023-05-21T05:08:55.287Z,94668.00
2023-05-21T05:09:55.327Z,94671.00
2023-05-21T05:10:55.361Z,94669.00
2023-05-21T05:11:55.380Z,94667.00
2023-05-21T05:12:55.415Z,94668.00
2023-05-21T05:13:55.445Z,94667.00
2023-05-21T05:14:55.509Z,94665.00
2023-05-21T05:15:55.529Z,94664.00
2023-05-21T05:16:55.614Z,94664.00
2023-05-21T05:17:55.548Z,94665.00
2023-05-21T05:18:55.579Z,94668.00
2023-05-21T05:19:55.587Z,94667.00
2023-05-21T05:20:55.604Z,94670.00
2023-05-21T05:21:55.559Z,94669.00
2023-05-21T05:22:55.605Z,94665.00
2023-05-21T05:23:55.669Z,94663.00
2023-05-21T05:24:55.692Z,94662.00
2023-05-21T05:25:55.741Z,94666.00
2023-05-21T05:26:55.726Z,94662.00
2023-05-21T05:27:55.795Z,94663.00
2023-05-21T05:28:55.804Z,94663.00
2023-05-21T05:29:55.856Z,94662.00
2023-05-21T05:30:55.889Z,94662.00
2023-05-21T05:31:55.862Z,94663.00
2023-05-21T05:32:55.968Z,94663.00
2023-05-21T05:33:55.884Z,94666.00
2023-05-21T05:34:56.046Z,94665.00
2023-05-21T05:35:56.061Z,94666.00
2023-05-21T05:36:56.076Z,94662.00
2023-05-21T05:37:56.089Z,94664.00
2023-05-21T05:38:56.093Z,94662.00
2023-05-21T05:39:56.091Z,94660.00
2023-05-21T05:40:56.123Z,94661.00
2023-05-21T05:41:56.175Z,94659.00
2023-05-21T05:42:56.164Z,94655.00
2023-05-21T05:43:56.113Z,94656.00
2023-05-21T05:44:56.155Z,94654.00
2023-05-21T05:45:56.270Z,94655.00
2023-05-21T05:46:56.307Z,94657.00
2023-05-21T05:47:56.382Z,94657.00
2023-05-21T05:48:56.389Z,94657.00
2023-05-21T05:49:56.389Z,94658.00
2023-05-21T05:50:56.470Z,94655.00
2023-05-21T05:51:56.494Z,94657.00
2023-05-21T05:52:56.512Z,94657.00
2023-05-21T05:53:56.542Z,94659.00
2023-05-21T05:54:56.599Z,94656.00
2023-05-21T05:55:56.588Z,94653.00
2023-05-21T05:56:56.624Z,94654.00
2023-05-21T05:57:56.626Z,94654.00
2023-05-21T05:58:56.709Z,94657.00
2023-05-21T05:59:56.683Z,94656.00
2023-05-21T06:00:56.754Z,94658.00
2023-05-21T06:01:58.336Z,94660.00
2023-05-21T06:02:56.927Z,94656.00
2023-05-21T06:03:56.844Z,94654.00
2023-05-21T06:04:56.828Z,94653.00
2023-05-21T06:05:56.946Z,94654.00
2023-05-21T06:06:56.855Z,94657.00
2023-05-21T06:07:56.894Z,94659.00
2023-05-21T06:08:56.936Z,94659.00
2023-05-21T06:09:57.034Z,94661.00
2023-05-21T06:10:56.975Z,94661.00
2023-05-21T06:11:57.025Z,94660.00
2023-05-21T06:12:57.025Z,94656.00
2023-05-21T06:13:57.065Z,94650.00
2023-05-21T06:14:57.112Z,94647.00
2023-05-21T06:15:57.162Z,94646.00
2023-05-21T06:16:57.160Z,94646.00
2023-05-21T06:17:57.211Z,94649.00
2023-05-21T06:18:57.240Z,94652.00
2023-05-21T06:19:57.238Z,94652.00
2023-05-21T06:20:57.289Z,94651.00
2023-05-21T06:21:57.317Z,94648.00
2023-05-21T06:22:57.301Z,94646.00
2023-05-21T06:23:57.402Z,94641.00
2023-05-21T06:24:57.437Z,94636.00
2023-05-21T06:25:57.472Z,94635.00
2023-05-21T06:26:57.436Z,94635.00
2023-05-21T06:27:57.560Z,94638.00
2023-05-21T06:28:57.555Z,94635.00
2023-05-21T06:29:57.558Z,94638.00
2023-05-21T06:30:57.562Z,94639.00
2023-05-21T06:31:57.601Z,94635.00
2023-05-21T06:32:57.738Z,94633.00
2023-05-21T06:33:57.782Z,94632.00
2023-05-21T06:34:57.757Z,94624.00
2023-05-21T06:35:57.816Z,94625.00
2023-05-21T06:36:57.809Z,94621.00
2023-05-21T06:37:57.815Z,94626.00
2023-05-21T06:38:57.871Z,94627.00
2023-05-21T06:39:57.825Z,94628.00
2023-05-21T06:40:57.952Z,94626.00
2023-05-21T06:41:57.928Z,94626.00
2023-05-21T06:42:57.956Z,94628.00
2023-05-21T06:43:57.988Z,94622.00
2023-05-21T06:44:57.995Z,94621.00
2023-05-21T06:45:58.129Z,94622.00
2023-05-21T06:46:58.101Z,94621.00
2023-05-21T06:47:58.129Z,94621.00
2023-05-21T06:48:58.128Z,94623.00
2023-05-21T06:49:58.159Z,94620.00
2023-05-21T06:50:58.197Z,94627.00
2023-05-21T06:51:58.218Z,94631.00
2023-05-21T06:52:58.247Z,94625.00
2023-05-21T06:53:58.260Z,94624.00
2023-05-21T06:54:58.296Z,94625.00
2023-05-21T06:55:58.347Z,94625.00
2023-05-21T06:56:58.357Z,94624.00
2023-05-21T06:57:58.364Z,94633.00
2023-05-21T06:58:58.363Z,94629.00
2023-05-21T06:59:58.413Z,94629.00
2023-05-21T07:00:58.521Z,94630.00
2023-05-21T07:01:58.502Z,94630.00
2023-05-21T07:02:58.632Z,94632.00
2023-05-21T07:03:58.546Z,94632.00
2023-05-21T07:04:58.536Z,94630.00
2023-05-21T07:05:58.632Z,94628.00
2023-05-21T07:06:58.642Z,94630.00
2023-05-21T07:07:58.654Z,94627.00
2023-05-21T07:08:58.640Z,94628.00
2023-05-21T07:09:58.715Z,94625.00
2023-05-21T07:10:58.742Z,94626.00
2023-05-21T07:11:58.695Z,94622.00
2023-05-21T07:12:58.756Z,94619.00
2023-05-21T07:13:58.791Z,94617.00
2023-05-21T07:14:59.431Z,94616.00
2023-05-21T07:15:58.827Z,94618.00
2023-05-21T07:16:58.948Z,94615.00
2023-05-21T07:17:58.968Z,94618.00
2023-05-21T07:18:59.026Z,94620.00
2023-05-21T07:19:59.032Z,94613.00
2023-05-21T07:20:59.185Z,94609.00
2023-05-21T07:21:59.034Z,94610.00
2023-05-21T07:22:59.037Z,94609.00
2023-05-21T07:23:59.097Z,94607.00
2023-05-21T07:24:59.113Z,94605.00
2023-05-21T07:25:59.164Z,94605.00
2023-05-21T07:26:59.165Z,94599.00
2023-05-21T07:27:59.196Z,94598.00
2023-05-21T07:28:59.235Z,94596.00
2023-05-21T07:29:59.260Z,94591.00
2023-05-21T07:30:59.371Z,94592.00
2023-05-21T07:31:59.367Z,94588.00
2023-05-21T07:32:59.438Z,94586.00
2023-05-21T07:33:59.420Z,94587.00
2023-05-21T07:34:59.426Z,94590.00
2023-05-21T07:35:59.447Z,94589.00
2023-05-21T07:36:59.549Z,94589.00
2023-05-21T07:37:59.527Z,94588.00
2023-05-21T07:38:59.961Z,94587.00
2023-05-21T07:39:59.540Z,94586.00
2023-05-21T07:40:59.588Z,94585.00
2023-05-21T07:41:59.574Z,94581.00
2023-05-21T07:42:59.599Z,94578.00
2023-05-21T07:43:59.674Z,94578.00
2023-05-21T07:44:59.722Z,94578.00
2023-05-21T07:45:59.770Z,94578.00
2023-05-21T07:46:59.774Z,94578.00
2023-05-21T07:47:59.855Z,94583.00
2023-05-21T07:48:59.859Z,94581.00
2023-05-21T07:49:59.983Z,94581.00
2023-05-21T07:50:59.955Z,94582.00
2023-05-21T07:51:59.951Z,94582.00
2023-05-21T07:53:00.033Z,94576.00
2023-05-21T07:53:59.980Z,94577.00
2023-05-21T07:54:59.997Z,94573.00
2023-05-21T07:56:00.052Z,94569.00
2023-05-21T07:57:00.102Z,94563.00
2023-05-21T07:58:00.107Z,94559.00
2023-05-21T07:59:00.151Z,94562.00
2023-05-21T08:00:00.134Z,94562.00
2023-05-21T08:01:00.179Z,94561.00
2023-05-21T08:02:00.179Z,94559.00
2023-05-21T08:03:00.334Z,94562.00
2023-05-21T08:04:00.393Z,94562.00
2023-05-21T08:05:00.379Z,94564.00
2023-05-21T08:06:01.131Z,94564.00
2023-05-21T08:07:00.403Z,94562.00
2023-05-21T08:08:00.398Z,94560.00
2023-05-21T08:09:00.459Z,94558.00
2023-05-21T08:10:02.539Z,94555.00
2023-05-21T08:11:00.503Z,94556.00
2023-05-21T08:12:00.482Z,94551.00
2023-05-21T08:13:00.450Z,94555.00
2023-05-21T08:14:00.485Z,94554.00
2023-05-21T08:15:00.475Z,94557.00
2023-05-21T08:16:00.581Z,94555.00
2023-05-21T08:17:00.577Z,94557.00
2023-05-21T08:18:00.608Z,94557.00
2023-05-21T08:19:00.731Z,94556.00
2023-05-21T08:20:00.621Z,94551.00
2023-05-21T08:21:00.672Z,94550.00
2023-05-21T08:22:00.691Z,94551.00
2023-05-21T08:23:00.728Z,94550.00
2023-05-21T08:24:00.760Z,94548.00
2023-05-21T08:25:00.731Z,94547.00
2023-05-21T08:26:00.806Z,94549.00
2023-05-21T08:27:00.807Z,94544.00
2023-05-21T08:28:00.874Z,94548.00
2023-05-21T08:29:00.893Z,94542.00
2023-05-21T08:30:00.907Z,94538.00
2023-05-21T08:31:00.948Z,94541.00
2023-05-21T08:32:01.070Z,94537.00
2023-05-21T08:33:01.088Z,94536.00
2023-05-21T08:34:01.029Z,94535.00
2023-05-21T08:35:02.150Z,94530.00
2023-05-21T08:36:01.126Z,94528.00
2023-05-21T08:37:01.208Z,94530.00
2023-05-21T08:38:01.209Z,94526.00
2023-05-21T08:39:01.237Z,94530.00
2023-05-21T08:40:01.252Z,94529.00
2023-05-21T08:41:01.315Z,94532.00
2023-05-21T08:42:01.328Z,94525.00
2023-05-21T08:43:01.363Z,94521.00
2023-05-21T08:44:01.407Z,94518.00
2023-05-21T08:45:01.411Z,94519.00
2023-05-21T08:46:01.523Z,94521.00
2023-05-21T08:47:01.500Z,94518.00
2023-05-21T08:48:01.530Z,94520.00
2023-05-21T08:49:01.575Z,94520.00
2023-05-21T08:50:01.605Z,94521.00
2023-05-21T08:51:01.659Z,94520.00
2023-05-21T08:52:01.692Z,94518.00
2023-05-21T08:53:04.028Z,94514.00
2023-05-21T08:54:02.680Z,94514.00
2023-05-21T08:55:01.677Z,94516.00
2023-05-21T08:56:01.667Z,94513.00
2023-05-21T08:57:01.667Z,94514.00
2023-05-21T08:58:01.705Z,94511.00
2023-05-21T08:59:01.660Z,94517.00
2023-05-21T09:00:01.642Z,94513.00
2023-05-21T09:01:01.670Z,94514.00
2023-05-21T09:02:01.754Z,94516.00
2023-05-21T09:03:01.753Z,94515.00
2023-05-21T09:04:12.217Z,94508.00
2023-05-21T09:05:02.635Z,94505.00
2023-05-21T09:06:01.653Z,94506.00
2023-05-21T09:07:01.605Z,94502.00
2023-05-21T09:08:01.566Z,94502.00
2023-05-21T09:09:01.593Z,94503.00
2023-05-21T09:10:01.558Z,94496.00
2023-05-21T09:11:01.618Z,94496.00
2023-05-21T09:12:01.591Z,94494.00
2023-05-21T09:13:01.534Z,94500.00
2023-05-21T09:14:01.534Z,94500.00
2023-05-21T09:15:01.560Z,94505.00
2023-05-21T09:16:01.591Z,94503.00
2023-05-21T09:17:01.657Z,94507.00
2023-05-21T09:18:01.605Z,94511.00
2023-05-21T09:19:04.377Z,94516.00
2023-05-21T09:20:01.555Z,94506.00
2023-05-21T09:21:01.587Z,94503.00
2023-05-21T09:22:01.563Z,94495.00
2023-05-21T09:23:01.534Z,94512.00
2023-05-21T09:24:01.618Z,94519.00
2023-05-21T09:25:01.561Z,94514.00
2023-05-21T09:26:01.559Z,94518.00
2023-05-21T09:27:01.501Z,94511.00
2023-05-21T09:28:01.518Z,94517.00
2023-05-21T09:29:01.523Z,94510.00
2023-05-21T09:30:01.525Z,94516.00
2023-05-21T09:31:01.533Z,94518.00
2023-05-21T09:32:01.506Z,94515.00
2023-05-21T09:33:01.544Z,94519.00
2023-05-21T09:34:01.546Z,94511.00
2023-05-21T09:35:01.445Z,94515.00
2023-05-21T09:36:01.489Z,94516.00
2023-05-21T09:37:01.420Z,94522.00
2023-05-21T09:38:01.427Z,94532.00
2023-05-21T09:39:01.409Z,94520.00
2023-05-21T09:40:01.452Z,94519.00
2023-05-21T09:41:01.427Z,94512.00
2023-05-21T09:42:01.444Z,94523.00
2023-05-21T09:43:01.370Z,94522.00
2023-05-21T09:44:01.386Z,94516.00
2023-05-21T09:45:01.387Z,94521.00
2023-05-21T09:46:02.313Z,94521.00
2023-05-21T09:47:01.388Z,94516.00
2023-05-21T09:48:01.426Z,94518.00
2023-05-21T09:49:01.364Z,94510.00
2023-05-21T09:50:01.389Z,94502.00
2023-05-21T09:51:01.385Z,94511.00
2023-05-21T09:52:01.312Z,94510.00
2023-05-21T09:53:01.311Z,94513.00
2023-05-21T09:54:01.325Z,94514.00
2023-05-21T09:55:01.386Z,94517.00
2023-05-21T09:56:01.317Z,94527.00
2023-05-21T09:57:01.291Z,94528.00
2023-05-21T09:58:01.300Z,94514.00
2023-05-21T09:59:01.329Z,94530.00
2023-05-21T10:00:01.314Z,94519.00
2023-05-21T10:01:01.296Z,94517.00
2023-05-21T10:02:01.398Z,94517.00
2023-05-21T10:03:01.352Z,94522.00
2023-05-21T10:04:01.307Z,94516.00
2023-05-21T10:05:01.285Z,94527.00
2023-05-21T10:06:01.286Z,94515.00
2023-05-21T10:07:01.218Z,94517.00
2023-05-21T10:08:01.256Z,94522.00
2023-05-21T10:09:02.542Z,94517.00
2023-05-21T10:10:01.227Z,94529.00
2023-05-21T10:11:01.222Z,94523.00
2023-05-21T10:12:01.226Z,94516.00
2023-05-21T10:13:01.216Z,94517.00
2023-05-21T10:14:01.194Z,94512.00
2023-05-21T10:15:01.164Z,94515.00
2023-05-21T10:16:01.261Z,94515.00
2023-05-21T10:17:01.195Z,94517.00
2023-05-21T10:18:01.260Z,94512.00
2023-05-21T10:19:01.257Z,94522.00
2023-05-21T10:20:01.168Z,94511.00
2023-05-21T10:21:01.179Z,94512.00
2023-05-21T10:22:01.150Z,94513.00
2023-05-21T10:23:01.147Z,94525.00
2023-05-21T10:24:01.169Z,94514.00
2023-05-21T10:25:01.137Z,94511.00
2023-05-21T10:26:01.104Z,94506.00
2023-05-21T10:27:01.113Z,94509.00
2023-05-21T10:28:01.079Z,94509.00
2023-05-21T10:29:01.105Z,94502.00
2023-05-21T10:30:01.139Z,94504.00
2023-05-21T10:31:01.084Z,94498.00
2023-05-21T10:32:01.193Z,94500.00
2023-05-21T10:33:01.228Z,94505.00
2023-05-21T10:34:01.071Z,94490.00
2023-05-21T10:35:01.883Z,94497.00
2023-05-21T10:36:01.077Z,94488.00
2023-05-21T10:37:01.061Z,94494.00
2023-05-21T10:38:01.087Z,94499.00
2023-05-21T10:39:00.999Z,94499.00
2023-05-21T10:40:01.041Z,94496.00
2023-05-21T10:41:01.000Z,94490.00
2023-05-21T10:42:01.025Z,94490.00
2023-05-21T10:43:01.011Z,94484.00
2023-05-21T10:44:01.006Z,94481.00
2023-05-21T10:45:00.985Z,94488.00
2023-05-21T10:46:01.077Z,94481.00
2023-05-21T10:47:00.972Z,94481.00
2023-05-21T10:48:01.028Z,94490.00
2023-05-21T10:49:00.972Z,94478.00
2023-05-21T10:50:00.978Z,94476.00
2023-05-21T10:51:00.980Z,94477.00
2023-05-21T10:52:00.958Z,94478.00
2023-05-21T10:53:01.007Z,94476.00
2023-05-21T10:54:00.936Z,94472.00
2023-05-21T10:55:00.929Z,94472.00
2023-05-21T10:56:00.962Z,94471.00
2023-05-21T10:57:00.966Z,94486.00
2023-05-21T10:58:00.879Z,94467.00
2023-05-21T10:59:00.880Z,94470.00
2023-05-21T11:00:01.009Z,94465.00
2023-05-21T11:01:01.094Z,94472.00
2023-05-21T11:02:01.056Z,94475.00
2023-05-21T11:03:01.080Z,94476.00
2023-05-21T11:04:01.195Z,94482.00
2023-05-21T11:05:01.114Z,94466.00
2023-05-21T11:06:01.127Z,94469.00
2023-05-21T11:07:01.094Z,94468.00
2023-05-21T11:08:01.174Z,94465.00
2023-05-21T11:09:01.212Z,94465.00
2023-05-21T11:10:01.224Z,94473.00
2023-05-21T11:11:01.281Z,94469.00
2023-05-21T11:12:01.277Z,94474.00
2023-05-21T11:13:01.259Z,94466.00
2023-05-21T11:14:01.322Z,94449.00
2023-05-21T11:15:01.298Z,94465.00
2023-05-21T11:16:01.364Z,94465.00
2023-05-21T11:17:01.423Z,94464.00
2023-05-21T11:18:01.468Z,94469.00
2023-05-21T11:19:01.530Z,94462.00
2023-05-21T11:20:01.534Z,94466.00
2023-05-21T11:21:01.548Z,94458.00
2023-05-21T11:22:01.500Z,94464.00
2023-05-21T11:23:01.570Z,94468.00
2023-05-21T11:24:01.640Z,94471.00
2023-05-21T11:25:01.635Z,94466.00
2023-05-21T11:26:01.737Z,94460.00
2023-05-21T11:27:01.693Z,94456.00
2023-05-21T11:28:01.762Z,94462.00
2023-05-21T11:29:01.758Z,94460.00
2023-05-21T11:30:01.818Z,94469.00
2023-05-21T11:31:01.850Z,94465.00
2023-05-21T11:32:01.881Z,94455.00
2023-05-21T11:33:01.945Z,94466.00
2023-05-21T11:34:01.945Z,94462.00
2023-05-21T11:35:02.054Z,94458.00
2023-05-21T11:36:02.016Z,94454.00
2023-05-21T11:37:02.014Z,94461.00
2023-05-21T11:38:02.021Z,94464.00
2023-05-21T11:39:02.074Z,94449.00
2023-05-21T11:40:02.131Z,94447.00
2023-05-21T11:41:02.166Z,94449.00
2023-05-21T11:42:04.465Z,94450.00
2023-05-21T11:43:02.312Z,94455.00
2023-05-21T11:44:02.387Z,94448.00
2023-05-21T11:45:02.483Z,94448.00
2023-05-21T11:46:02.550Z,94449.00